This is the latest recevied weather packets stored in our database for station/object SV9TNF-2. If no packets are shown the sender has not sent any weather packets the latest 10 day(s).
| Time | Temp. | Humidity | Pressure | Rain* | Wind** | Luminosity | Snow |
|---|---|---|---|---|---|---|---|
| 1777969980 | 24.44° C | 39% | 1024.7 hPa | 0 mm | 2.24 m/s, 294° | - | - |
| 1777969680 | 24.44° C | 40% | 1024.7 hPa | 0 mm | 2.68 m/s, 350° | - | - |
| 1777969379 | 23.89° C | 44% | 1024.7 hPa | 0 mm | 4.02 m/s, 274° | - | - |
| 1777969079 | 24.44° C | 44% | 1024.7 hPa | 0 mm | 5.81 m/s, 267° | - | - |
| 1777968780 | 22.22° C | 49% | 1024.7 hPa | 0 mm | 4.02 m/s, 267° | - | - |
| 1777968479 | 23.89° C | 45% | 1024.7 hPa | 0 mm | 0.89 m/s, 266° | - | - |
| 1777968179 | 23.33° C | 45% | 1024.7 hPa | 0 mm | 2.68 m/s, 11° | - | - |
| 1777967879 | 22.78° C | 51% | 1024.7 hPa | 0 mm | 5.36 m/s, 238° | - | - |
| 1777967579 | 23.33° C | 50% | 1024.7 hPa | 0 mm | 1.79 m/s, 233° | - | - |
| 1777967279 | 23.89° C | 47% | 1024.7 hPa | 0 mm | 0.89 m/s, 274° | - | - |
| 1777966979 | 23.33° C | 47% | 1024.7 hPa | 0 mm | 0.89 m/s, 344° | - | - |
| 1777966679 | 22.78° C | 50% | 1024.7 hPa | 0 mm | 3.13 m/s, 249° | - | - |
| 1777966379 | 22.78° C | 50% | 1024.7 hPa | 0 mm | 1.79 m/s, 294° | - | - |
| 1777966079 | 22.78° C | 50% | 1024.7 hPa | 0 mm | 0.89 m/s, 251° | - | - |
| 1777965779 | 22.22° C | 52% | 1024.7 hPa | 0 mm | 4.02 m/s, 269° | - | - |
| 1777965478 | 22.22° C | 52% | 1024.7 hPa | 0 mm | 0.89 m/s, 75° | - | - |
| 1777965178 | 21.67° C | 52% | 1024.7 hPa | 0 mm | 1.34 m/s, 244° | - | - |
| 1777964878 | 21.67° C | 55% | 1024.7 hPa | 0 mm | 0.45 m/s, 243° | - | - |
| 1777964578 | 20.56° C | 56% | 1024.7 hPa | 0 mm | 5.36 m/s, 14° | - | - |
| 1777964278 | 20.56° C | 55% | 1024.7 hPa | 0 mm | 4.02 m/s, 25° | - | - |
| 1777963978 | 21.67° C | 54% | 1024.7 hPa | 0 mm | 5.81 m/s, 244° | - | - |
| 1777963678 | 21.67° C | 54% | 1024.4 hPa | 0 mm | 3.13 m/s, 264° | - | - |
| 1777963378 | 21.67° C | 54% | 1024.4 hPa | 0 mm | 4.02 m/s, 258° | - | - |
| 1777963077 | 21.67° C | 55% | 1024.4 hPa | 0 mm | 6.26 m/s, 257° | - | - |
| 1777962778 | 21.67° C | 56% | 1024.4 hPa | 0 mm | 2.68 m/s, 259° | - | - |
* Rain latest hour (hover to see other rain measurements)
** Current wind speed in m/s (hover to see current wind gust speed)